Airfield :
LOGIN :

Register | Disclaimer

   EN    FR    IT 

 










Legend :    VFR   Marginal VFR   IFR   Intensive IFR   Very Intensive IFR
Visi :
Ceiling :
>= 8 km
>= 3000ft
5 to 8 km
1000 to 3000 ft
1500m to 5 km
500 to 1000 ft
800 to 1500m
200 to 500 ft
< 800m
< 200 ft
Symbols :   Thunderstorms  Fog  Heavy snow  Heavy precipitations  Wind > 20 kt
SIGMETs :     Misc.  Thunderstorms  Icing  Turbulence  Mountain Waves  Volcanic Ashes






- Airport Elevation : -11 ft
- IATA code : AMS


EHAM - Amsterdam Schiphol

CURRENT METAR :
  • 031825Z 34011KT 300V020 9999 FEW025 17/12 Q1002 NOSIG

EXPIRED METARs :
  • 031755Z 31011KT 9999 FEW025 17/12 Q1002 NOSIG
  • 031725Z 31012KT 9999 FEW027 17/12 Q1002 NOSIG
  • 031655Z 30012KT 280V340 CAVOK 17/12 Q1003 NOSIG
  • 031625Z 32012KT 280V350 CAVOK 18/12 Q1003 NOSIG
  • 031555Z 31014KT CAVOK 19/12 Q1003 NOSIG

TAF TAF EHAM
Valid from the 03 at 18:00 until the 05 at 00:00 UTC


031630Z 0318/0424 33013KT CAVOK
BECMG 0321/0323 SCT012 BKN018
PROB30
TEMPO 0322/0407 SCT010 BKN012
BECMG 0407/0409 SCT018 BKN025
PROB30
TEMPO 0410/0415 7000 -RA
BECMG 0417/0419 29010KT



MET'MAP, your aeronautical weather chart ! - Copyright ORBIFLY December 2007 - Disclaimer

ORBIFLY MET'MAP TEAM :

Programming & Development : Alexandra Zaïnal
Concept & original design : Baudouin d'Aumeries
Assistance for programming : Marc-Olivier Méhu
Technical & hardware support : Manuel Goepfert

Contact : metmap@orbifly.com




SOURCES & CREDITS :

   NOAA